createdAt,value
2023-05-02T00:02:02.812Z,100214.80
2023-05-02T00:07:12.621Z,100215.40
2023-05-02T00:12:23.522Z,100208.40
2023-05-02T00:17:33.609Z,100206.00
2023-05-02T00:22:43.989Z,100198.40
2023-05-02T00:27:53.760Z,100188.60
2023-05-02T00:33:03.529Z,100184.80
2023-05-02T00:38:13.349Z,100178.00
2023-05-02T00:43:23.209Z,100172.20
2023-05-02T00:48:33.069Z,100158.20
2023-05-02T00:53:43.400Z,100152.60
2023-05-02T00:58:53.979Z,100142.40
2023-05-02T01:04:21.910Z,100140.80
2023-05-02T01:09:45.234Z,100136.60
2023-05-02T01:15:00.310Z,100120.60
2023-05-02T01:20:16.109Z,100120.60
2023-05-02T01:25:38.562Z,100119.00
2023-05-02T01:30:51.977Z,100118.20
2023-05-02T01:36:05.089Z,100107.80
2023-05-02T01:41:16.612Z,100106.60
2023-05-02T01:46:29.400Z,100109.00
2023-05-02T01:51:46.362Z,100100.40
2023-05-02T01:56:58.180Z,100094.80
2023-05-02T02:02:10.517Z,100076.40
2023-05-02T02:07:20.452Z,100076.40
2023-05-02T02:12:38.550Z,100077.20
2023-05-02T02:17:56.878Z,100076.40
2023-05-02T02:23:10.217Z,100078.80
2023-05-02T02:28:20.217Z,100066.20
2023-05-02T02:33:33.942Z,100065.20
2023-05-02T02:38:51.252Z,100068.20
2023-05-02T02:44:19.672Z,100064.20
2023-05-02T02:49:41.214Z,100062.00
2023-05-02T02:54:59.679Z,100060.80
2023-05-02T03:00:18.119Z,100058.60
2023-05-02T03:05:29.126Z,100052.80
2023-05-02T03:10:39.128Z,100048.20
2023-05-02T03:16:31.457Z,100054.20
2023-05-02T03:21:42.180Z,100045.20
2023-05-02T03:26:52.119Z,100052.20
2023-05-02T03:32:02.047Z,100056.60
2023-05-02T03:37:12.164Z,100053.60
2023-05-02T03:42:22.920Z,100061.00
2023-05-02T03:47:32.698Z,100055.40
2023-05-02T03:52:42.392Z,100050.80
2023-05-02T03:57:52.342Z,100050.80
2023-05-02T04:03:03.953Z,100044.60
2023-05-02T04:08:13.885Z,100041.40
2023-05-02T04:13:23.595Z,100041.00
2023-05-02T04:18:33.523Z,100051.00
2023-05-02T04:23:43.294Z,100046.80
2023-05-02T04:28:52.928Z,100045.20
2023-05-02T04:34:04.593Z,100047.40
2023-05-02T04:39:14.331Z,100048.40
2023-05-02T04:44:24.157Z,100050.60
2023-05-02T04:49:33.920Z,100057.80
2023-05-02T04:54:43.521Z,100056.00
2023-05-02T04:59:53.226Z,100052.00
2023-05-02T05:05:04.773Z,100055.40
2023-05-02T05:10:15.531Z,100067.60
2023-05-02T05:15:26.334Z,100065.40
2023-05-02T05:20:36.207Z,100079.60
2023-05-02T05:25:46.506Z,100078.60
2023-05-02T05:30:56.389Z,100083.80
2023-05-02T05:36:12.338Z,100087.00
2023-05-02T05:41:22.338Z,100098.60
2023-05-02T05:46:32.135Z,100101.60
2023-05-02T05:51:42.583Z,100110.60
2023-05-02T05:56:53.021Z,100109.00
2023-05-02T06:02:02.786Z,100117.80
2023-05-02T06:07:12.789Z,100110.80
2023-05-02T06:12:23.090Z,100093.20
2023-05-02T06:17:32.922Z,100103.20
2023-05-02T06:22:42.904Z,100120.00
2023-05-02T06:27:59.113Z,100127.00
2023-05-02T06:33:12.706Z,100135.20
2023-05-02T06:38:22.638Z,100134.20
2023-05-02T06:43:33.253Z,100137.60
2023-05-02T06:48:43.080Z,100144.40
2023-05-02T06:53:53.056Z,100155.00
2023-05-02T06:59:03.280Z,100161.80
2023-05-02T07:04:13.176Z,100167.60
2023-05-02T07:09:22.933Z,100173.40
2023-05-02T07:14:32.711Z,100180.80
2023-05-02T07:19:58.757Z,100181.20
2023-05-02T07:25:10.354Z,100185.20
2023-05-02T07:30:20.061Z,100195.60
2023-05-02T07:35:29.772Z,100201.00
2023-05-02T07:40:39.508Z,100214.80
2023-05-02T07:45:49.585Z,100214.00
2023-05-02T07:51:07.276Z,100211.80
2023-05-02T07:56:17.066Z,100203.00
2023-05-02T08:01:26.947Z,100213.20
2023-05-02T08:06:37.152Z,100220.60
2023-05-02T08:11:46.892Z,100222.20
2023-05-02T08:16:56.578Z,100236.80
2023-05-02T08:22:06.480Z,100243.20
2023-05-02T08:27:16.103Z,100253.80
2023-05-02T08:32:25.881Z,100253.60
2023-05-02T08:37:36.702Z,100274.40
2023-05-02T08:42:48.839Z,100277.40
2023-05-02T08:48:00.383Z,100280.60
2023-05-02T08:53:12.415Z,100287.20
2023-05-02T08:58:22.126Z,100295.40
2023-05-02T09:03:36.384Z,100298.00
2023-05-02T09:08:49.108Z,100306.60
2023-05-02T09:14:04.250Z,100318.80
2023-05-02T09:19:25.418Z,100325.60
2023-05-02T09:24:35.152Z,100328.80
2023-05-02T09:29:46.314Z,100341.80
2023-05-02T09:40:30.430Z,100306.80
2023-05-02T09:45:40.516Z,100305.60
2023-05-02T09:50:50.174Z,100297.20
2023-05-02T09:56:11.312Z,100311.20
2023-05-02T10:01:22.794Z,100317.60
2023-05-02T10:06:34.291Z,100318.80
2023-05-02T10:11:46.398Z,100322.80
2023-05-02T10:17:06.711Z,100328.00
2023-05-02T10:22:20.266Z,100345.40
2023-05-02T10:27:30.905Z,100349.00
2023-05-02T10:32:42.201Z,100359.60
2023-05-02T10:37:53.934Z,100373.20
2023-05-02T10:43:03.851Z,100375.00
2023-05-02T10:48:22.571Z,100372.00
2023-05-02T10:53:36.946Z,100380.20
2023-05-02T10:58:49.571Z,100386.80
2023-05-02T11:04:03.815Z,100375.00
2023-05-02T11:09:40.138Z,100388.20
2023-05-02T11:14:54.396Z,100395.40
2023-05-02T11:20:29.801Z,100397.40
2023-05-02T11:25:45.661Z,100406.80
2023-05-02T11:30:56.127Z,100407.40
2023-05-02T11:36:07.250Z,100405.80
2023-05-02T11:41:17.951Z,100405.40
2023-05-02T11:46:27.791Z,100418.60
2023-05-02T11:51:38.110Z,100419.40
2023-05-02T11:56:48.731Z,100417.60
2023-05-02T12:01:58.624Z,100437.20
2023-05-02T12:07:10.153Z,100448.00
2023-05-02T12:12:25.410Z,100445.00
2023-05-02T12:17:36.559Z,100447.40
2023-05-02T12:22:47.909Z,100457.60
2023-05-02T12:28:08.297Z,100459.80
2023-05-02T12:33:18.649Z,100458.60
2023-05-02T12:38:28.694Z,100464.40
2023-05-02T12:43:55.071Z,100468.80
2023-05-02T12:49:12.927Z,100480.40
2023-05-02T12:54:27.126Z,100487.20
2023-05-02T12:59:37.680Z,100489.60
2023-05-02T13:04:47.616Z,100481.20
2023-05-02T13:09:57.416Z,100493.60
2023-05-02T13:15:09.032Z,100506.20
2023-05-02T13:20:19.215Z,100515.40
2023-05-02T13:25:29.038Z,100517.00
2023-05-02T13:30:38.745Z,100522.20
2023-05-02T13:35:48.640Z,100527.00
2023-05-02T13:40:58.379Z,100541.20
2023-05-02T13:46:08.355Z,100543.00
2023-05-02T13:51:18.151Z,100539.20
2023-05-02T13:56:28.122Z,100544.60
2023-05-02T14:01:40.795Z,100551.20
2023-05-02T14:06:50.930Z,100575.40
2023-05-02T14:12:00.755Z,100584.80
2023-05-02T14:17:10.477Z,100593.20
2023-05-02T14:22:20.229Z,100619.80
2023-05-02T14:27:29.996Z,100624.60
2023-05-02T14:32:39.841Z,100649.80
2023-05-02T14:37:49.727Z,100658.20
2023-05-02T14:42:59.533Z,100674.00
2023-05-02T14:48:11.156Z,100679.20
2023-05-02T14:53:22.134Z,100690.00
2023-05-02T14:58:31.921Z,100701.20
2023-05-02T15:03:56.998Z,100707.80
2023-05-02T15:09:12.361Z,100717.80
2023-05-02T15:14:21.994Z,100724.00
2023-05-02T15:19:31.702Z,100726.40
2023-05-02T15:24:41.292Z,100744.80
2023-05-02T15:29:50.971Z,100760.40
2023-05-02T15:35:00.895Z,100766.40
2023-05-02T15:40:14.667Z,100766.00
2023-05-02T15:45:24.629Z,100770.00
2023-05-02T15:50:34.585Z,100781.60
2023-05-02T15:55:46.111Z,100779.80
2023-05-02T16:00:56.303Z,100774.80
2023-05-02T16:06:07.973Z,100780.40
2023-05-02T16:11:17.784Z,100785.20
2023-05-02T16:16:27.706Z,100807.00
2023-05-02T16:21:37.766Z,100804.40
2023-05-02T16:26:47.727Z,100798.00
2023-05-02T16:31:57.572Z,100809.60
2023-05-02T16:37:07.758Z,100813.60
2023-05-02T16:42:17.597Z,100821.80
2023-05-02T16:47:27.371Z,100819.20
2023-05-02T16:52:38.274Z,100819.20
2023-05-02T16:57:48.147Z,100820.40
2023-05-02T17:02:58.578Z,100826.80
2023-05-02T17:08:09.844Z,100836.80
2023-05-02T17:13:22.032Z,100823.20
2023-05-02T17:18:32.021Z,100734.40
2023-05-02T17:23:42.408Z,100847.20
2023-05-02T17:28:54.022Z,100834.60
2023-05-02T17:34:04.012Z,100757.60
2023-05-02T17:39:16.094Z,100840.60
2023-05-02T17:44:25.984Z,100871.80
2023-05-02T17:49:36.713Z,100872.80
2023-05-02T17:54:46.780Z,100873.80
2023-05-02T17:59:59.817Z,100879.20
2023-05-02T18:05:11.059Z,100882.40
2023-05-02T18:10:21.629Z,100891.20
2023-05-02T18:15:31.532Z,100891.40
2023-05-02T18:20:44.846Z,100909.40
2023-05-02T18:25:54.719Z,100913.60
2023-05-02T18:31:05.090Z,100912.80
2023-05-02T18:36:15.139Z,100917.20
2023-05-02T18:41:25.077Z,100917.40
2023-05-02T18:46:34.771Z,100914.40
2023-05-02T18:51:44.621Z,100928.60
2023-05-02T18:56:54.270Z,100932.80
2023-05-02T19:02:04.446Z,100945.00
2023-05-02T19:07:14.780Z,100947.60
2023-05-02T19:12:24.855Z,100947.20
2023-05-02T19:17:35.441Z,100964.80
2023-05-02T19:22:46.372Z,100962.00
2023-05-02T19:27:56.228Z,100969.20
2023-05-02T19:33:06.138Z,100973.40
2023-05-02T19:38:16.010Z,100980.40
2023-05-02T19:43:25.849Z,100985.60
2023-05-02T19:48:35.865Z,100987.40
2023-05-02T19:53:45.845Z,100982.00
2023-05-02T19:58:56.999Z,100985.20
2023-05-02T20:04:07.166Z,100994.40
2023-05-02T20:09:17.399Z,101002.00
2023-05-02T20:14:27.263Z,100998.40
2023-05-02T20:19:37.069Z,100998.60
2023-05-02T20:24:46.893Z,100999.40
2023-05-02T20:29:57.130Z,101004.00
2023-05-02T20:35:07.479Z,101014.00
2023-05-02T20:40:19.886Z,101012.20
2023-05-02T20:45:29.990Z,101019.80
2023-05-02T20:50:40.065Z,101011.20
2023-05-02T20:55:50.031Z,101016.40
2023-05-02T21:00:59.845Z,101012.00
2023-05-02T21:06:09.873Z,101019.60
2023-05-02T21:11:20.669Z,101029.00
2023-05-02T21:16:30.559Z,101028.40
2023-05-02T21:21:40.576Z,101022.20
2023-05-02T21:26:50.436Z,101030.20
2023-05-02T21:32:00.190Z,101020.00
2023-05-02T21:37:09.923Z,101021.20
2023-05-02T21:42:19.839Z,101018.00
2023-05-02T21:47:29.851Z,101029.20
2023-05-02T21:52:39.752Z,101037.40
2023-05-02T21:57:49.528Z,101035.00
2023-05-02T22:03:49.159Z,101040.60
2023-05-02T22:08:59.010Z,101049.40
2023-05-02T22:14:08.795Z,101049.80
2023-05-02T22:19:18.475Z,101047.40
2023-05-02T22:24:28.410Z,101048.80
2023-05-02T22:29:38.357Z,101050.00
2023-05-02T22:34:48.147Z,101045.80
2023-05-02T22:39:58.020Z,101052.40
2023-05-02T22:45:09.611Z,101053.80
2023-05-02T22:50:20.136Z,101052.00
2023-05-02T22:55:30.160Z,101055.40
2023-05-02T23:00:40.020Z,101057.40
2023-05-02T23:05:50.285Z,101053.00
2023-05-02T23:11:00.285Z,101054.40
2023-05-02T23:16:10.992Z,101056.60
2023-05-02T23:21:21.194Z,101060.40
2023-05-02T23:26:31.141Z,101067.00
2023-05-02T23:31:41.176Z,101054.40
2023-05-02T23:36:52.983Z,101051.00
2023-05-02T23:42:03.974Z,101057.00
2023-05-02T23:47:13.824Z,101056.40
2023-05-02T23:52:23.737Z,101051.40
2023-05-02T23:57:34.252Z,101050.80
